sensor_id;sensor_type;location;lat;lon;timestamp;P1;durP1;ratioP1;P2;durP2;ratioP2
40611;SDS011;26317;44.894;20.286;2023-03-31T00:01:51;25.95;;;21.42;;
40611;SDS011;26317;44.894;20.286;2023-03-31T00:04:31;24.17;;;20.25;;
40611;SDS011;26317;44.894;20.286;2023-03-31T00:07:13;25.85;;;18.90;;
40611;SDS011;26317;44.894;20.286;2023-03-31T00:09:56;26.48;;;19.20;;
40611;SDS011;26317;44.894;20.286;2023-03-31T00:12:57;27.73;;;19.42;;
40611;SDS011;26317;44.894;20.286;2023-03-31T00:15:38;23.25;;;17.88;;
40611;SDS011;26317;44.894;20.286;2023-03-31T00:18:26;22.92;;;16.85;;
40611;SDS011;26317;44.894;20.286;2023-03-31T00:21:09;27.42;;;15.75;;
40611;SDS011;26317;44.894;20.286;2023-03-31T00:24:02;20.25;;;14.80;;
40611;SDS011;26317;44.894;20.286;2023-03-31T00:26:46;16.40;;;13.00;;
40611;SDS011;26317;44.894;20.286;2023-03-31T00:29:24;17.40;;;12.32;;
40611;SDS011;26317;44.894;20.286;2023-03-31T00:32:15;15.18;;;8.73;;
40611;SDS011;26317;44.894;20.286;2023-03-31T00:34:53;11.77;;;6.45;;
40611;SDS011;26317;44.894;20.286;2023-03-31T00:37:31;11.35;;;6.50;;
40611;SDS011;26317;44.894;20.286;2023-03-31T00:40:05;10.27;;;6.65;;
40611;SDS011;26317;44.894;20.286;2023-03-31T00:42:42;12.18;;;6.22;;
40611;SDS011;26317;44.894;20.286;2023-03-31T00:45:27;9.18;;;5.85;;
40611;SDS011;26317;44.894;20.286;2023-03-31T00:48:11;15.23;;;6.93;;
40611;SDS011;26317;44.894;20.286;2023-03-31T00:50:53;11.77;;;6.25;;
40611;SDS011;26317;44.894;20.286;2023-03-31T00:53:31;10.27;;;5.97;;
40611;SDS011;26317;44.894;20.286;2023-03-31T00:56:13;12.20;;;5.65;;
40611;SDS011;26317;44.894;20.286;2023-03-31T00:58:53;7.93;;;5.95;;
40611;SDS011;26317;44.894;20.286;2023-03-31T01:01:36;10.55;;;5.95;;
40611;SDS011;26317;44.894;20.286;2023-03-31T01:04:23;9.18;;;5.65;;
40611;SDS011;26317;44.894;20.286;2023-03-31T01:06:57;12.82;;;6.32;;
40611;SDS011;26317;44.894;20.286;2023-03-31T01:09:39;11.63;;;6.25;;
40611;SDS011;26317;44.894;20.286;2023-03-31T01:12:23;12.20;;;6.07;;
40611;SDS011;26317;44.894;20.286;2023-03-31T01:15:10;10.18;;;5.55;;
40611;SDS011;26317;44.894;20.286;2023-03-31T01:17:48;9.13;;;5.03;;
40611;SDS011;26317;44.894;20.286;2023-03-31T01:20:40;14.27;;;5.47;;
40611;SDS011;26317;44.894;20.286;2023-03-31T01:24:21;10.60;;;4.75;;
40611;SDS011;26317;44.894;20.286;2023-03-31T01:37:22;8.07;;;3.70;;
40611;SDS011;26317;44.894;20.286;2023-03-31T01:43:28;8.57;;;3.25;;
40611;SDS011;26317;44.894;20.286;2023-03-31T01:46:08;6.05;;;2.78;;
40611;SDS011;26317;44.894;20.286;2023-03-31T01:51:35;7.80;;;3.30;;
40611;SDS011;26317;44.894;20.286;2023-03-31T01:54:30;4.55;;;2.78;;
40611;SDS011;26317;44.894;20.286;2023-03-31T01:57:14;8.60;;;3.17;;
40611;SDS011;26317;44.894;20.286;2023-03-31T01:59:58;9.80;;;3.95;;
40611;SDS011;26317;44.894;20.286;2023-03-31T02:02:45;8.88;;;3.92;;
40611;SDS011;26317;44.894;20.286;2023-03-31T02:05:30;6.50;;;3.28;;
40611;SDS011;26317;44.894;20.286;2023-03-31T02:08:08;6.00;;;2.60;;
40611;SDS011;26317;44.894;20.286;2023-03-31T02:10:56;6.60;;;2.95;;
40611;SDS011;26317;44.894;20.286;2023-03-31T02:13:42;8.05;;;2.95;;
40611;SDS011;26317;44.894;20.286;2023-03-31T02:16:25;4.72;;;3.05;;
40611;SDS011;26317;44.894;20.286;2023-03-31T02:19:13;8.85;;;3.10;;
40611;SDS011;26317;44.894;20.286;2023-03-31T02:22:07;6.35;;;2.70;;
40611;SDS011;26317;44.894;20.286;2023-03-31T02:24:51;8.05;;;3.15;;
40611;SDS011;26317;44.894;20.286;2023-03-31T02:27:35;7.35;;;2.55;;
40611;SDS011;26317;44.894;20.286;2023-03-31T02:30:14;6.15;;;2.78;;
40611;SDS011;26317;44.894;20.286;2023-03-31T02:32:49;6.13;;;3.08;;
40611;SDS011;26317;44.894;20.286;2023-03-31T02:35:30;5.22;;;3.42;;
40611;SDS011;26317;44.894;20.286;2023-03-31T02:38:12;10.00;;;3.40;;
40611;SDS011;26317;44.894;20.286;2023-03-31T02:40:58;5.15;;;2.92;;
40611;SDS011;26317;44.894;20.286;2023-03-31T02:43:42;8.63;;;3.35;;
40611;SDS011;26317;44.894;20.286;2023-03-31T02:46:35;6.93;;;3.22;;
40611;SDS011;26317;44.894;20.286;2023-03-31T02:49:28;7.47;;;3.42;;
40611;SDS011;26317;44.894;20.286;2023-03-31T02:52:22;8.02;;;2.42;;
40611;SDS011;26317;44.894;20.286;2023-03-31T02:55:23;11.23;;;3.30;;
40611;SDS011;26317;44.894;20.286;2023-03-31T02:58:37;7.70;;;3.40;;
40611;SDS011;26317;44.894;20.286;2023-03-31T03:01:34;6.25;;;3.10;;
40611;SDS011;26317;44.894;20.286;2023-03-31T03:04:31;5.90;;;3.13;;
40611;SDS011;26317;44.894;20.286;2023-03-31T03:07:26;4.93;;;2.72;;
40611;SDS011;26317;44.894;20.286;2023-03-31T03:10:35;8.10;;;3.20;;
40611;SDS011;26317;44.894;20.286;2023-03-31T03:13:39;12.20;;;2.63;;
40611;SDS011;26317;44.894;20.286;2023-03-31T03:16:21;6.90;;;2.88;;
40611;SDS011;26317;44.894;20.286;2023-03-31T03:19:16;4.05;;;2.30;;
40611;SDS011;26317;44.894;20.286;2023-03-31T03:21:54;6.75;;;2.90;;
40611;SDS011;26317;44.894;20.286;2023-03-31T03:24:49;10.30;;;3.10;;
40611;SDS011;26317;44.894;20.286;2023-03-31T03:27:32;12.23;;;2.97;;
40611;SDS011;26317;44.894;20.286;2023-03-31T03:30:07;7.68;;;2.55;;
40611;SDS011;26317;44.894;20.286;2023-03-31T03:32:44;7.05;;;2.42;;
40611;SDS011;26317;44.894;20.286;2023-03-31T03:35:28;8.90;;;2.80;;
40611;SDS011;26317;44.894;20.286;2023-03-31T03:38:08;7.78;;;3.03;;
40611;SDS011;26317;44.894;20.286;2023-03-31T03:40:54;8.80;;;3.10;;
40611;SDS011;26317;44.894;20.286;2023-03-31T03:43:37;6.47;;;2.97;;
40611;SDS011;26317;44.894;20.286;2023-03-31T03:46:10;6.95;;;2.30;;
40611;SDS011;26317;44.894;20.286;2023-03-31T03:48:46;15.00;;;3.55;;
40611;SDS011;26317;44.894;20.286;2023-03-31T03:51:40;4.60;;;2.55;;
40611;SDS011;26317;44.894;20.286;2023-03-31T03:54:29;4.72;;;2.83;;
40611;SDS011;26317;44.894;20.286;2023-03-31T03:57:27;4.75;;;3.03;;
40611;SDS011;26317;44.894;20.286;2023-03-31T04:00:07;5.40;;;2.78;;
40611;SDS011;26317;44.894;20.286;2023-03-31T04:02:54;6.07;;;3.17;;
40611;SDS011;26317;44.894;20.286;2023-03-31T04:05:31;5.07;;;3.10;;
40611;SDS011;26317;44.894;20.286;2023-03-31T04:08:18;7.65;;;2.70;;
40611;SDS011;26317;44.894;20.286;2023-03-31T04:10:55;5.88;;;3.15;;
40611;SDS011;26317;44.894;20.286;2023-03-31T04:13:32;7.78;;;3.55;;
40611;SDS011;26317;44.894;20.286;2023-03-31T04:16:04;7.20;;;3.60;;
40611;SDS011;26317;44.894;20.286;2023-03-31T04:18:48;9.57;;;4.15;;
40611;SDS011;26317;44.894;20.286;2023-03-31T04:21:27;6.13;;;4.50;;
40611;SDS011;26317;44.894;20.286;2023-03-31T04:24:17;5.05;;;3.10;;
40611;SDS011;26317;44.894;20.286;2023-03-31T04:27:02;6.78;;;3.30;;
40611;SDS011;26317;44.894;20.286;2023-03-31T04:30:00;7.40;;;3.92;;
40611;SDS011;26317;44.894;20.286;2023-03-31T04:32:40;8.63;;;3.92;;
40611;SDS011;26317;44.894;20.286;2023-03-31T04:35:22;9.00;;;3.58;;
40611;SDS011;26317;44.894;20.286;2023-03-31T04:38:29;11.20;;;3.88;;
40611;SDS011;26317;44.894;20.286;2023-03-31T04:41:24;6.93;;;3.92;;
40611;SDS011;26317;44.894;20.286;2023-03-31T04:44:02;6.80;;;3.55;;
40611;SDS011;26317;44.894;20.286;2023-03-31T04:46:42;7.05;;;3.85;;
40611;SDS011;26317;44.894;20.286;2023-03-31T04:49:22;8.45;;;3.90;;
40611;SDS011;26317;44.894;20.286;2023-03-31T04:52:04;12.20;;;5.30;;
40611;SDS011;26317;44.894;20.286;2023-03-31T04:54:54;8.55;;;4.07;;
40611;SDS011;26317;44.894;20.286;2023-03-31T04:57:53;10.98;;;4.40;;
40611;SDS011;26317;44.894;20.286;2023-03-31T05:00:33;13.65;;;4.25;;
40611;SDS011;26317;44.894;20.286;2023-03-31T05:03:17;7.22;;;3.67;;
40611;SDS011;26317;44.894;20.286;2023-03-31T05:05:59;10.90;;;3.88;;
40611;SDS011;26317;44.894;20.286;2023-03-31T05:08:44;6.53;;;3.42;;
40611;SDS011;26317;44.894;20.286;2023-03-31T05:11:18;10.55;;;4.93;;
40611;SDS011;26317;44.894;20.286;2023-03-31T05:14:13;11.85;;;4.22;;
40611;SDS011;26317;44.894;20.286;2023-03-31T05:16:53;10.60;;;4.65;;
40611;SDS011;26317;44.894;20.286;2023-03-31T05:19:35;11.70;;;4.43;;
40611;SDS011;26317;44.894;20.286;2023-03-31T05:22:20;10.80;;;4.30;;
40611;SDS011;26317;44.894;20.286;2023-03-31T05:24:56;10.32;;;4.32;;
40611;SDS011;26317;44.894;20.286;2023-03-31T05:27:50;12.80;;;4.57;;
40611;SDS011;26317;44.894;20.286;2023-03-31T05:30:41;13.52;;;5.03;;
40611;SDS011;26317;44.894;20.286;2023-03-31T05:33:18;13.77;;;4.95;;
40611;SDS011;26317;44.894;20.286;2023-03-31T05:36:16;7.78;;;4.25;;
40611;SDS011;26317;44.894;20.286;2023-03-31T05:39:01;12.10;;;5.05;;
40611;SDS011;26317;44.894;20.286;2023-03-31T05:41:47;6.82;;;4.82;;
40611;SDS011;26317;44.894;20.286;2023-03-31T05:44:35;8.35;;;4.78;;
40611;SDS011;26317;44.894;20.286;2023-03-31T05:47:31;10.93;;;4.47;;
40611;SDS011;26317;44.894;20.286;2023-03-31T05:50:16;6.97;;;4.00;;
40611;SDS011;26317;44.894;20.286;2023-03-31T05:52:55;12.85;;;4.30;;
40611;SDS011;26317;44.894;20.286;2023-03-31T05:55:37;17.83;;;8.27;;
40611;SDS011;26317;44.894;20.286;2023-03-31T05:58:13;13.75;;;10.43;;
40611;SDS011;26317;44.894;20.286;2023-03-31T06:00:50;12.95;;;6.45;;
40611;SDS011;26317;44.894;20.286;2023-03-31T06:03:50;9.32;;;4.70;;
40611;SDS011;26317;44.894;20.286;2023-03-31T06:06:33;14.95;;;5.45;;
40611;SDS011;26317;44.894;20.286;2023-03-31T06:09:09;11.07;;;4.50;;
40611;SDS011;26317;44.894;20.286;2023-03-31T06:11:52;13.02;;;4.47;;
40611;SDS011;26317;44.894;20.286;2023-03-31T06:14:26;7.38;;;4.03;;
40611;SDS011;26317;44.894;20.286;2023-03-31T06:17:05;5.47;;;3.60;;
40611;SDS011;26317;44.894;20.286;2023-03-31T06:19:45;11.40;;;4.35;;
40611;SDS011;26317;44.894;20.286;2023-03-31T06:22:21;8.77;;;3.90;;
40611;SDS011;26317;44.894;20.286;2023-03-31T06:25:07;9.48;;;4.38;;
40611;SDS011;26317;44.894;20.286;2023-03-31T06:27:54;6.70;;;3.70;;
40611;SDS011;26317;44.894;20.286;2023-03-31T06:30:32;7.68;;;3.70;;
40611;SDS011;26317;44.894;20.286;2023-03-31T06:33:22;8.85;;;4.05;;
40611;SDS011;26317;44.894;20.286;2023-03-31T06:36:15;9.27;;;3.92;;
40611;SDS011;26317;44.894;20.286;2023-03-31T06:38:56;14.73;;;4.65;;
40611;SDS011;26317;44.894;20.286;2023-03-31T06:41:39;9.52;;;3.60;;
40611;SDS011;26317;44.894;20.286;2023-03-31T06:44:27;8.57;;;3.10;;
40611;SDS011;26317;44.894;20.286;2023-03-31T06:47:09;7.95;;;2.33;;
40611;SDS011;26317;44.894;20.286;2023-03-31T06:49:47;10.50;;;3.40;;
40611;SDS011;26317;44.894;20.286;2023-03-31T06:52:30;6.35;;;2.63;;
40611;SDS011;26317;44.894;20.286;2023-03-31T06:55:08;8.02;;;2.45;;
40611;SDS011;26317;44.894;20.286;2023-03-31T07:00:35;7.03;;;2.78;;
40611;SDS011;26317;44.894;20.286;2023-03-31T07:03:24;5.75;;;3.15;;
40611;SDS011;26317;44.894;20.286;2023-03-31T07:06:06;5.20;;;2.42;;
40611;SDS011;26317;44.894;20.286;2023-03-31T07:08:46;7.78;;;3.17;;
40611;SDS011;26317;44.894;20.286;2023-03-31T07:11:29;4.43;;;2.45;;
40611;SDS011;26317;44.894;20.286;2023-03-31T07:17:04;8.77;;;3.92;;
40611;SDS011;26317;44.894;20.286;2023-03-31T07:22:33;8.50;;;5.57;;
40611;SDS011;26317;44.894;20.286;2023-03-31T07:25:20;12.80;;;4.65;;
40611;SDS011;26317;44.894;20.286;2023-03-31T07:28:05;8.82;;;3.78;;
40611;SDS011;26317;44.894;20.286;2023-03-31T07:31:10;9.98;;;7.10;;
40611;SDS011;26317;44.894;20.286;2023-03-31T07:33:50;9.52;;;3.55;;
40611;SDS011;26317;44.894;20.286;2023-03-31T07:36:27;6.25;;;3.55;;
40611;SDS011;26317;44.894;20.286;2023-03-31T07:39:06;10.05;;;3.58;;
40611;SDS011;26317;44.894;20.286;2023-03-31T07:41:44;9.48;;;4.03;;
40611;SDS011;26317;44.894;20.286;2023-03-31T07:44:26;10.05;;;3.25;;
40611;SDS011;26317;44.894;20.286;2023-03-31T07:47:11;6.93;;;2.92;;
40611;SDS011;26317;44.894;20.286;2023-03-31T07:49:48;9.02;;;3.25;;
40611;SDS011;26317;44.894;20.286;2023-03-31T07:52:30;9.07;;;3.22;;
40611;SDS011;26317;44.894;20.286;2023-03-31T07:55:17;10.93;;;3.40;;
40611;SDS011;26317;44.894;20.286;2023-03-31T07:58:04;6.68;;;2.67;;
40611;SDS011;26317;44.894;20.286;2023-03-31T08:00:44;11.63;;;2.80;;
40611;SDS011;26317;44.894;20.286;2023-03-31T08:03:21;10.25;;;3.28;;
40611;SDS011;26317;44.894;20.286;2023-03-31T08:06:05;7.05;;;2.92;;
40611;SDS011;26317;44.894;20.286;2023-03-31T08:11:44;4.75;;;2.97;;
40611;SDS011;26317;44.894;20.286;2023-03-31T08:14:26;6.20;;;2.67;;
40611;SDS011;26317;44.894;20.286;2023-03-31T08:17:09;9.57;;;3.05;;
40611;SDS011;26317;44.894;20.286;2023-03-31T08:19:58;4.50;;;2.97;;
40611;SDS011;26317;44.894;20.286;2023-03-31T08:22:41;8.52;;;3.67;;
40611;SDS011;26317;44.894;20.286;2023-03-31T08:25:28;6.85;;;2.40;;
40611;SDS011;26317;44.894;20.286;2023-03-31T08:28:22;6.28;;;2.33;;
40611;SDS011;26317;44.894;20.286;2023-03-31T08:31:08;7.70;;;2.80;;
40611;SDS011;26317;44.894;20.286;2023-03-31T08:34:00;6.68;;;3.28;;
40611;SDS011;26317;44.894;20.286;2023-03-31T08:36:45;8.65;;;3.05;;
40611;SDS011;26317;44.894;20.286;2023-03-31T08:39:31;4.65;;;2.75;;
40611;SDS011;26317;44.894;20.286;2023-03-31T08:42:27;7.38;;;2.92;;
40611;SDS011;26317;44.894;20.286;2023-03-31T08:45:16;7.85;;;2.90;;
40611;SDS011;26317;44.894;20.286;2023-03-31T08:48:00;9.45;;;2.70;;
40611;SDS011;26317;44.894;20.286;2023-03-31T08:50:42;7.78;;;2.15;;
40611;SDS011;26317;44.894;20.286;2023-03-31T08:53:36;6.03;;;2.90;;
40611;SDS011;26317;44.894;20.286;2023-03-31T08:56:21;6.15;;;2.60;;
40611;SDS011;26317;44.894;20.286;2023-03-31T08:59:06;6.70;;;2.05;;
40611;SDS011;26317;44.894;20.286;2023-03-31T09:02:01;7.22;;;3.13;;
40611;SDS011;26317;44.894;20.286;2023-03-31T09:08:04;4.68;;;2.65;;
40611;SDS011;26317;44.894;20.286;2023-03-31T09:10:53;4.75;;;2.17;;
40611;SDS011;26317;44.894;20.286;2023-03-31T09:14:03;4.65;;;2.50;;
40611;SDS011;26317;44.894;20.286;2023-03-31T09:16:53;8.40;;;2.63;;
40611;SDS011;26317;44.894;20.286;2023-03-31T09:19:45;7.05;;;2.85;;
40611;SDS011;26317;44.894;20.286;2023-03-31T09:22:42;11.02;;;3.00;;
40611;SDS011;26317;44.894;20.286;2023-03-31T09:25:34;4.97;;;2.50;;
40611;SDS011;26317;44.894;20.286;2023-03-31T09:28:16;4.28;;;2.40;;
40611;SDS011;26317;44.894;20.286;2023-03-31T09:31:00;8.35;;;2.50;;
40611;SDS011;26317;44.894;20.286;2023-03-31T09:33:53;8.65;;;2.78;;
40611;SDS011;26317;44.894;20.286;2023-03-31T09:36:46;6.18;;;2.30;;
40611;SDS011;26317;44.894;20.286;2023-03-31T09:39:36;7.72;;;2.95;;
40611;SDS011;26317;44.894;20.286;2023-03-31T09:42:11;7.20;;;2.55;;
40611;SDS011;26317;44.894;20.286;2023-03-31T09:44:49;6.95;;;2.13;;
40611;SDS011;26317;44.894;20.286;2023-03-31T09:47:30;3.90;;;1.83;;
40611;SDS011;26317;44.894;20.286;2023-03-31T09:50:18;8.40;;;2.35;;
40611;SDS011;26317;44.894;20.286;2023-03-31T09:53:04;12.30;;;11.13;;
40611;SDS011;26317;44.894;20.286;2023-03-31T09:56:03;4.22;;;2.20;;
40611;SDS011;26317;44.894;20.286;2023-03-31T09:58:45;7.15;;;2.53;;
40611;SDS011;26317;44.894;20.286;2023-03-31T10:01:22;5.63;;;2.30;;
40611;SDS011;26317;44.894;20.286;2023-03-31T10:04:02;6.68;;;2.30;;
40611;SDS011;26317;44.894;20.286;2023-03-31T10:06:57;5.28;;;2.65;;
40611;SDS011;26317;44.894;20.286;2023-03-31T10:09:39;6.57;;;2.20;;
40611;SDS011;26317;44.894;20.286;2023-03-31T10:12:22;4.07;;;2.20;;
40611;SDS011;26317;44.894;20.286;2023-03-31T10:15:14;3.92;;;1.85;;
40611;SDS011;26317;44.894;20.286;2023-03-31T10:18:15;2.92;;;2.40;;
40611;SDS011;26317;44.894;20.286;2023-03-31T10:21:05;7.65;;;2.25;;
40611;SDS011;26317;44.894;20.286;2023-03-31T10:23:58;9.32;;;2.15;;
40611;SDS011;26317;44.894;20.286;2023-03-31T10:26:40;4.07;;;1.90;;
40611;SDS011;26317;44.894;20.286;2023-03-31T10:29:29;10.35;;;2.22;;
40611;SDS011;26317;44.894;20.286;2023-03-31T10:32:14;6.55;;;2.15;;
40611;SDS011;26317;44.894;20.286;2023-03-31T10:35:03;6.45;;;2.33;;
40611;SDS011;26317;44.894;20.286;2023-03-31T10:37:53;7.15;;;2.58;;
40611;SDS011;26317;44.894;20.286;2023-03-31T10:40:47;8.13;;;2.30;;
40611;SDS011;26317;44.894;20.286;2023-03-31T10:43:30;6.32;;;2.35;;
40611;SDS011;26317;44.894;20.286;2023-03-31T10:46:16;5.65;;;2.15;;
40611;SDS011;26317;44.894;20.286;2023-03-31T10:51:33;5.55;;;2.38;;
40611;SDS011;26317;44.894;20.286;2023-03-31T10:54:24;5.07;;;2.13;;
40611;SDS011;26317;44.894;20.286;2023-03-31T10:57:12;7.88;;;2.40;;
40611;SDS011;26317;44.894;20.286;2023-03-31T11:03:06;13.10;;;2.80;;
40611;SDS011;26317;44.894;20.286;2023-03-31T11:06:12;5.75;;;2.53;;
40611;SDS011;26317;44.894;20.286;2023-03-31T11:09:03;8.55;;;2.58;;
40611;SDS011;26317;44.894;20.286;2023-03-31T11:11:59;7.28;;;3.20;;
40611;SDS011;26317;44.894;20.286;2023-03-31T11:14:44;5.57;;;3.22;;
40611;SDS011;26317;44.894;20.286;2023-03-31T11:17:56;7.10;;;2.35;;
40611;SDS011;26317;44.894;20.286;2023-03-31T11:20:59;3.92;;;2.70;;
40611;SDS011;26317;44.894;20.286;2023-03-31T11:23:56;6.60;;;3.05;;
40611;SDS011;26317;44.894;20.286;2023-03-31T11:26:48;8.38;;;2.55;;
40611;SDS011;26317;44.894;20.286;2023-03-31T11:29:36;3.88;;;2.17;;
40611;SDS011;26317;44.894;20.286;2023-03-31T11:35:46;4.53;;;2.28;;
40611;SDS011;26317;44.894;20.286;2023-03-31T11:38:46;2.33;;;1.90;;
40611;SDS011;26317;44.894;20.286;2023-03-31T11:41:38;8.52;;;3.42;;
40611;SDS011;26317;44.894;20.286;2023-03-31T11:44:25;8.65;;;2.97;;
40611;SDS011;26317;44.894;20.286;2023-03-31T11:47:14;6.70;;;2.63;;
40611;SDS011;26317;44.894;20.286;2023-03-31T11:50:01;8.23;;;2.83;;
40611;SDS011;26317;44.894;20.286;2023-03-31T11:52:49;7.57;;;2.40;;
40611;SDS011;26317;44.894;20.286;2023-03-31T11:55:35;7.47;;;3.38;;
40611;SDS011;26317;44.894;20.286;2023-03-31T11:58:21;6.88;;;2.90;;
40611;SDS011;26317;44.894;20.286;2023-03-31T12:01:07;5.13;;;2.25;;
40611;SDS011;26317;44.894;20.286;2023-03-31T12:04:00;4.90;;;2.97;;
40611;SDS011;26317;44.894;20.286;2023-03-31T12:06:44;12.10;;;2.35;;
40611;SDS011;26317;44.894;20.286;2023-03-31T12:09:33;6.18;;;2.55;;
40611;SDS011;26317;44.894;20.286;2023-03-31T12:12:23;6.75;;;2.45;;
40611;SDS011;26317;44.894;20.286;2023-03-31T12:15:21;6.72;;;2.50;;
40611;SDS011;26317;44.894;20.286;2023-03-31T12:18:07;6.50;;;2.10;;
40611;SDS011;26317;44.894;20.286;2023-03-31T12:21:06;9.35;;;2.60;;
40611;SDS011;26317;44.894;20.286;2023-03-31T12:23:44;7.63;;;2.53;;
40611;SDS011;26317;44.894;20.286;2023-03-31T12:26:32;8.68;;;2.25;;
40611;SDS011;26317;44.894;20.286;2023-03-31T12:29:42;11.45;;;2.65;;
40611;SDS011;26317;44.894;20.286;2023-03-31T12:32:22;5.75;;;2.17;;
40611;SDS011;26317;44.894;20.286;2023-03-31T12:35:09;9.05;;;2.35;;
40611;SDS011;26317;44.894;20.286;2023-03-31T12:38:01;8.75;;;2.25;;
40611;SDS011;26317;44.894;20.286;2023-03-31T12:40:57;8.18;;;2.47;;
40611;SDS011;26317;44.894;20.286;2023-03-31T12:47:04;5.25;;;2.67;;
40611;SDS011;26317;44.894;20.286;2023-03-31T12:50:10;11.35;;;2.58;;
40611;SDS011;26317;44.894;20.286;2023-03-31T12:53:08;5.55;;;2.20;;
40611;SDS011;26317;44.894;20.286;2023-03-31T12:55:57;10.77;;;2.90;;
40611;SDS011;26317;44.894;20.286;2023-03-31T12:58:42;5.75;;;2.45;;
40611;SDS011;26317;44.894;20.286;2023-03-31T13:01:23;4.00;;;1.95;;
40611;SDS011;26317;44.894;20.286;2023-03-31T13:04:16;6.03;;;2.53;;
40611;SDS011;26317;44.894;20.286;2023-03-31T13:07:03;10.27;;;2.08;;
40611;SDS011;26317;44.894;20.286;2023-03-31T13:09:57;7.95;;;2.53;;
40611;SDS011;26317;44.894;20.286;2023-03-31T13:12:32;6.50;;;2.45;;
40611;SDS011;26317;44.894;20.286;2023-03-31T13:15:14;5.55;;;2.60;;
40611;SDS011;26317;44.894;20.286;2023-03-31T13:18:13;9.40;;;3.25;;
40611;SDS011;26317;44.894;20.286;2023-03-31T13:20:59;4.68;;;2.65;;
40611;SDS011;26317;44.894;20.286;2023-03-31T13:23:42;8.65;;;2.53;;
40611;SDS011;26317;44.894;20.286;2023-03-31T13:26:40;6.13;;;2.28;;
40611;SDS011;26317;44.894;20.286;2023-03-31T13:29:37;6.75;;;2.58;;
40611;SDS011;26317;44.894;20.286;2023-03-31T13:32:31;11.73;;;2.50;;
40611;SDS011;26317;44.894;20.286;2023-03-31T13:35:19;7.65;;;2.97;;
40611;SDS011;26317;44.894;20.286;2023-03-31T13:38:01;6.00;;;2.80;;
40611;SDS011;26317;44.894;20.286;2023-03-31T13:40:58;6.65;;;3.08;;
40611;SDS011;26317;44.894;20.286;2023-03-31T13:43:51;5.47;;;2.30;;
40611;SDS011;26317;44.894;20.286;2023-03-31T13:46:51;6.10;;;2.70;;
40611;SDS011;26317;44.894;20.286;2023-03-31T13:53:24;6.95;;;3.00;;
40611;SDS011;26317;44.894;20.286;2023-03-31T13:59:41;6.50;;;2.72;;
40611;SDS011;26317;44.894;20.286;2023-03-31T14:02:44;10.32;;;2.75;;
40611;SDS011;26317;44.894;20.286;2023-03-31T14:05:52;7.53;;;2.65;;
40611;SDS011;26317;44.894;20.286;2023-03-31T14:08:51;8.38;;;2.42;;
40611;SDS011;26317;44.894;20.286;2023-03-31T14:11:26;5.15;;;2.58;;
40611;SDS011;26317;44.894;20.286;2023-03-31T14:14:11;17.35;;;8.43;;
40611;SDS011;26317;44.894;20.286;2023-03-31T14:16:46;6.05;;;2.70;;
40611;SDS011;26317;44.894;20.286;2023-03-31T14:19:51;6.93;;;3.88;;
40611;SDS011;26317;44.894;20.286;2023-03-31T14:23:16;7.07;;;2.78;;
40611;SDS011;26317;44.894;20.286;2023-03-31T14:26:08;7.28;;;2.78;;
40611;SDS011;26317;44.894;20.286;2023-03-31T14:28:56;5.50;;;2.85;;
40611;SDS011;26317;44.894;20.286;2023-03-31T14:31:42;8.00;;;2.40;;
40611;SDS011;26317;44.894;20.286;2023-03-31T14:34:37;5.55;;;2.70;;
40611;SDS011;26317;44.894;20.286;2023-03-31T14:43:11;11.02;;;3.50;;
40611;SDS011;26317;44.894;20.286;2023-03-31T14:46:00;7.28;;;3.10;;
40611;SDS011;26317;44.894;20.286;2023-03-31T14:48:53;7.40;;;2.65;;
40611;SDS011;26317;44.894;20.286;2023-03-31T14:51:36;8.50;;;3.67;;
40611;SDS011;26317;44.894;20.286;2023-03-31T14:54:20;10.52;;;3.22;;
40611;SDS011;26317;44.894;20.286;2023-03-31T14:56:57;6.35;;;2.45;;
40611;SDS011;26317;44.894;20.286;2023-03-31T14:59:35;8.82;;;2.60;;
40611;SDS011;26317;44.894;20.286;2023-03-31T15:02:14;6.82;;;1.88;;
40611;SDS011;26317;44.894;20.286;2023-03-31T15:04:52;4.10;;;2.28;;
40611;SDS011;26317;44.894;20.286;2023-03-31T15:07:34;10.60;;;3.15;;
40611;SDS011;26317;44.894;20.286;2023-03-31T15:10:15;3.83;;;1.73;;
40611;SDS011;26317;44.894;20.286;2023-03-31T15:12:57;8.48;;;2.70;;
40611;SDS011;26317;44.894;20.286;2023-03-31T15:15:44;7.50;;;2.90;;
40611;SDS011;26317;44.894;20.286;2023-03-31T15:18:17;9.15;;;4.43;;
40611;SDS011;26317;44.894;20.286;2023-03-31T15:20:55;9.23;;;3.05;;
40611;SDS011;26317;44.894;20.286;2023-03-31T15:23:34;6.22;;;2.22;;
40611;SDS011;26317;44.894;20.286;2023-03-31T15:26:24;9.30;;;2.90;;
40611;SDS011;26317;44.894;20.286;2023-03-31T15:29:13;5.97;;;2.67;;
40611;SDS011;26317;44.894;20.286;2023-03-31T15:32:03;6.28;;;2.55;;
40611;SDS011;26317;44.894;20.286;2023-03-31T15:34:44;7.20;;;2.53;;
40611;SDS011;26317;44.894;20.286;2023-03-31T15:37:21;5.70;;;2.28;;
40611;SDS011;26317;44.894;20.286;2023-03-31T15:40:03;8.02;;;2.75;;
40611;SDS011;26317;44.894;20.286;2023-03-31T15:42:48;8.65;;;2.72;;
40611;SDS011;26317;44.894;20.286;2023-03-31T15:45:55;6.85;;;3.10;;
40611;SDS011;26317;44.894;20.286;2023-03-31T15:48:31;11.45;;;2.90;;
40611;SDS011;26317;44.894;20.286;2023-03-31T15:51:27;7.45;;;2.58;;
40611;SDS011;26317;44.894;20.286;2023-03-31T15:54:24;9.90;;;3.20;;
40611;SDS011;26317;44.894;20.286;2023-03-31T15:57:04;4.40;;;2.35;;
40611;SDS011;26317;44.894;20.286;2023-03-31T15:59:53;6.05;;;2.55;;
40611;SDS011;26317;44.894;20.286;2023-03-31T16:02:46;8.02;;;2.28;;
40611;SDS011;26317;44.894;20.286;2023-03-31T16:05:43;7.88;;;2.65;;
40611;SDS011;26317;44.894;20.286;2023-03-31T16:08:47;8.13;;;2.67;;
40611;SDS011;26317;44.894;20.286;2023-03-31T16:11:34;7.18;;;3.42;;
40611;SDS011;26317;44.894;20.286;2023-03-31T16:14:18;4.70;;;2.90;;
40611;SDS011;26317;44.894;20.286;2023-03-31T16:17:20;11.43;;;3.08;;
40611;SDS011;26317;44.894;20.286;2023-03-31T16:20:16;5.13;;;2.47;;
40611;SDS011;26317;44.894;20.286;2023-03-31T16:25:56;7.57;;;3.05;;
40611;SDS011;26317;44.894;20.286;2023-03-31T16:28:53;14.48;;;3.72;;
40611;SDS011;26317;44.894;20.286;2023-03-31T16:31:35;6.97;;;3.53;;
40611;SDS011;26317;44.894;20.286;2023-03-31T16:34:21;9.98;;;3.30;;
40611;SDS011;26317;44.894;20.286;2023-03-31T16:37:10;5.60;;;3.35;;
40611;SDS011;26317;44.894;20.286;2023-03-31T16:39:54;9.77;;;3.88;;
40611;SDS011;26317;44.894;20.286;2023-03-31T16:42:34;8.02;;;4.70;;
40611;SDS011;26317;44.894;20.286;2023-03-31T16:45:07;17.48;;;5.93;;
40611;SDS011;26317;44.894;20.286;2023-03-31T16:48:09;15.23;;;5.65;;
40611;SDS011;26317;44.894;20.286;2023-03-31T16:50:54;15.40;;;5.78;;
40611;SDS011;26317;44.894;20.286;2023-03-31T16:53:43;12.95;;;6.63;;
40611;SDS011;26317;44.894;20.286;2023-03-31T16:56:37;11.35;;;5.65;;
40611;SDS011;26317;44.894;20.286;2023-03-31T16:59:19;12.73;;;7.03;;
40611;SDS011;26317;44.894;20.286;2023-03-31T17:02:01;16.30;;;6.68;;
40611;SDS011;26317;44.894;20.286;2023-03-31T17:04:43;14.95;;;6.85;;
40611;SDS011;26317;44.894;20.286;2023-03-31T17:07:27;9.77;;;6.00;;
40611;SDS011;26317;44.894;20.286;2023-03-31T17:10:10;12.57;;;7.25;;
40611;SDS011;26317;44.894;20.286;2023-03-31T17:12:55;22.75;;;7.50;;
40611;SDS011;26317;44.894;20.286;2023-03-31T17:15:42;18.58;;;8.30;;
40611;SDS011;26317;44.894;20.286;2023-03-31T17:18:45;18.00;;;10.25;;
40611;SDS011;26317;44.894;20.286;2023-03-31T17:21:28;24.05;;;11.30;;
40611;SDS011;26317;44.894;20.286;2023-03-31T17:24:06;32.58;;;15.23;;
40611;SDS011;26317;44.894;20.286;2023-03-31T17:26:46;18.25;;;11.25;;